Airfield :
LOGIN :

Register | Disclaimer

   EN    FR    IT 

 










Legend :    VFR   Marginal VFR   IFR   Intensive IFR   Very Intensive IFR
Visi :
Ceiling :
>= 8 km
>= 3000ft
5 to 8 km
1000 to 3000 ft
1500m to 5 km
500 to 1000 ft
800 to 1500m
200 to 500 ft
< 800m
< 200 ft
Symbols :   Thunderstorms  Fog  Heavy snow  Heavy precipitations  Wind > 20 kt
SIGMETs :     Misc.  Thunderstorms  Icing  Turbulence  Mountain Waves  Volcanic Ashes







- Airport Elevation : 463 ft
- IATA code : QAS


DAOI - Chlef Int.

CURRENT METAR :
  • 250000Z 34008KT 9999 FEW026 18/12 Q1011

EXPIRED METARs :
  • 242300Z 30005KT 9999 FEW026 19/10 Q1011
  • 242200Z 00000KT 9999 FEW026 19/11 Q1011

TAF TAF DAOI
Valid from the 25 at 00:00 until the 26 at 00:00 UTC


242300Z 2500/2524 VRB02KT 9999 FEW026
PROB40
TEMPO 2504/2508 5000 BR SCT010 BKN026
BECMG 2508/2510 02010KT 9999 SCT030
TEMPO 2507/2515 RA BKN030
No reported NOTAMs for that airfield.
2 SIGMETs reported for the Alger FIR (DAAA) :
 
Embedded thunderstorms
DAAA SIGMET 7 VALID 242200/242400 DAMM
DAAA ALGER FIR EMBD TS OBS E OF LINE N3127 W00045 - N3758 E00555 TOP FL400 MOV NE NC=
Embedded thunderstorms
DAAA SIGMET 1 VALID 250000/250400 DAMM
DAAA ALGER FIR EMBD TS OBS E OF LINE N3724 E00518 - N3258 E00304 TOP FL400 MOV NE NC=



MET'MAP, your aeronautical weather chart ! - Copyright ORBIFLY December 2007 - Disclaimer

ORBIFLY MET'MAP TEAM :

Programming & Development : Alexandra Zaïnal
Concept & Development : Baudouin d'Aumeries
Co-Development & Prog : Marc-Olivier Méhu
Technical & hardware support : Manuel Goepfert

Contact : metmap@orbifly.com




SOURCES & CREDITS :

   NOAA